sensor_id;sensor_type;location;lat;lon;timestamp;P1;durP1;ratioP1;P2;durP2;ratioP2
50821;SDS011;36794;51.212;6.980;2022-10-16T00:01:03;6.70;;;1.90;;
50821;SDS011;36794;51.212;6.980;2022-10-16T00:03:29;6.82;;;1.90;;
50821;SDS011;36794;51.212;6.980;2022-10-16T00:05:58;13.60;;;1.98;;
50821;SDS011;36794;51.212;6.980;2022-10-16T00:08:24;13.50;;;2.00;;
50821;SDS011;36794;51.212;6.980;2022-10-16T00:10:50;9.80;;;2.35;;
50821;SDS011;36794;51.212;6.980;2022-10-16T00:13:16;9.18;;;2.55;;
50821;SDS011;36794;51.212;6.980;2022-10-16T00:15:44;7.95;;;2.30;;
50821;SDS011;36794;51.212;6.980;2022-10-16T00:18:11;4.88;;;2.15;;
50821;SDS011;36794;51.212;6.980;2022-10-16T00:20:39;13.32;;;2.88;;
50821;SDS011;36794;51.212;6.980;2022-10-16T00:23:05;8.05;;;3.13;;
50821;SDS011;36794;51.212;6.980;2022-10-16T00:25:31;11.70;;;2.67;;
50821;SDS011;36794;51.212;6.980;2022-10-16T00:28:01;5.75;;;2.42;;
50821;SDS011;36794;51.212;6.980;2022-10-16T00:30:27;9.63;;;2.72;;
50821;SDS011;36794;51.212;6.980;2022-10-16T00:32:54;7.53;;;2.03;;
50821;SDS011;36794;51.212;6.980;2022-10-16T00:35:19;8.32;;;2.20;;
50821;SDS011;36794;51.212;6.980;2022-10-16T00:37:45;14.07;;;2.63;;
50821;SDS011;36794;51.212;6.980;2022-10-16T00:40:11;7.00;;;2.22;;
50821;SDS011;36794;51.212;6.980;2022-10-16T00:42:37;6.60;;;2.50;;
50821;SDS011;36794;51.212;6.980;2022-10-16T00:45:03;7.90;;;2.60;;
50821;SDS011;36794;51.212;6.980;2022-10-16T00:47:30;10.48;;;2.33;;
50821;SDS011;36794;51.212;6.980;2022-10-16T00:50:08;6.90;;;1.90;;
50821;SDS011;36794;51.212;6.980;2022-10-16T00:52:35;6.00;;;2.20;;
50821;SDS011;36794;51.212;6.980;2022-10-16T00:55:02;6.13;;;2.30;;
50821;SDS011;36794;51.212;6.980;2022-10-16T00:57:29;5.90;;;2.20;;
50821;SDS011;36794;51.212;6.980;2022-10-16T00:59:55;5.25;;;2.25;;
50821;SDS011;36794;51.212;6.980;2022-10-16T01:02:21;5.10;;;2.03;;
50821;SDS011;36794;51.212;6.980;2022-10-16T01:04:48;7.95;;;1.90;;
50821;SDS011;36794;51.212;6.980;2022-10-16T01:07:27;14.50;;;2.90;;
50821;SDS011;36794;51.212;6.980;2022-10-16T01:12:33;6.65;;;2.22;;
50821;SDS011;36794;51.212;6.980;2022-10-16T01:15:08;9.65;;;2.25;;
50821;SDS011;36794;51.212;6.980;2022-10-16T01:17:39;4.45;;;2.05;;
50821;SDS011;36794;51.212;6.980;2022-10-16T01:20:08;7.97;;;2.28;;
50821;SDS011;36794;51.212;6.980;2022-10-16T01:22:54;7.65;;;1.90;;
50821;SDS011;36794;51.212;6.980;2022-10-16T01:25:25;9.40;;;1.83;;
50821;SDS011;36794;51.212;6.980;2022-10-16T01:27:55;13.60;;;1.80;;
50821;SDS011;36794;51.212;6.980;2022-10-16T01:30:23;12.55;;;1.77;;
50821;SDS011;36794;51.212;6.980;2022-10-16T01:32:50;12.68;;;2.03;;
50821;SDS011;36794;51.212;6.980;2022-10-16T01:40:32;3.88;;;1.50;;
50821;SDS011;36794;51.212;6.980;2022-10-16T01:43:01;23.60;;;2.65;;
50821;SDS011;36794;51.212;6.980;2022-10-16T01:45:28;8.52;;;1.95;;
50821;SDS011;36794;51.212;6.980;2022-10-16T01:47:56;14.38;;;2.00;;
50821;SDS011;36794;51.212;6.980;2022-10-16T01:50:23;7.30;;;1.80;;
50821;SDS011;36794;51.212;6.980;2022-10-16T01:52:50;8.05;;;2.13;;
50821;SDS011;36794;51.212;6.980;2022-10-16T01:55:19;11.00;;;2.00;;
50821;SDS011;36794;51.212;6.980;2022-10-16T01:57:48;6.07;;;2.00;;
50821;SDS011;36794;51.212;6.980;2022-10-16T02:00:16;6.22;;;2.17;;
50821;SDS011;36794;51.212;6.980;2022-10-16T02:02:44;4.95;;;2.10;;
50821;SDS011;36794;51.212;6.980;2022-10-16T02:05:13;9.35;;;2.72;;
50821;SDS011;36794;51.212;6.980;2022-10-16T02:07:41;8.80;;;2.47;;
50821;SDS011;36794;51.212;6.980;2022-10-16T02:10:07;4.65;;;2.15;;
50821;SDS011;36794;51.212;6.980;2022-10-16T02:12:33;8.63;;;2.67;;
50821;SDS011;36794;51.212;6.980;2022-10-16T02:15:02;12.63;;;3.25;;
50821;SDS011;36794;51.212;6.980;2022-10-16T02:17:28;4.55;;;2.30;;
50821;SDS011;36794;51.212;6.980;2022-10-16T02:19:54;12.85;;;2.28;;
50821;SDS011;36794;51.212;6.980;2022-10-16T02:22:44;6.80;;;2.20;;
50821;SDS011;36794;51.212;6.980;2022-10-16T02:25:50;5.43;;;2.00;;
50821;SDS011;36794;51.212;6.980;2022-10-16T02:28:01;8.95;;;2.08;;
50821;SDS011;36794;51.212;6.980;2022-10-16T02:30:30;10.60;;;2.38;;
50821;SDS011;36794;51.212;6.980;2022-10-16T02:33:05;7.60;;;2.53;;
50821;SDS011;36794;51.212;6.980;2022-10-16T02:37:58;9.48;;;2.15;;
50821;SDS011;36794;51.212;6.980;2022-10-16T02:40:24;8.68;;;1.80;;
50821;SDS011;36794;51.212;6.980;2022-10-16T02:42:54;3.78;;;1.50;;
50821;SDS011;36794;51.212;6.980;2022-10-16T02:45:20;8.95;;;2.28;;
50821;SDS011;36794;51.212;6.980;2022-10-16T02:47:46;4.90;;;1.98;;
50821;SDS011;36794;51.212;6.980;2022-10-16T02:50:12;5.55;;;1.90;;
50821;SDS011;36794;51.212;6.980;2022-10-16T02:52:38;5.78;;;1.98;;
50821;SDS011;36794;51.212;6.980;2022-10-16T02:55:04;4.65;;;1.55;;
50821;SDS011;36794;51.212;6.980;2022-10-16T02:57:31;5.43;;;1.48;;
50821;SDS011;36794;51.212;6.980;2022-10-16T02:59:57;6.18;;;1.73;;
50821;SDS011;36794;51.212;6.980;2022-10-16T03:02:23;5.10;;;1.67;;
50821;SDS011;36794;51.212;6.980;2022-10-16T03:04:49;6.05;;;1.40;;
50821;SDS011;36794;51.212;6.980;2022-10-16T03:07:15;4.15;;;1.63;;
50821;SDS011;36794;51.212;6.980;2022-10-16T03:09:41;3.00;;;1.50;;
50821;SDS011;36794;51.212;6.980;2022-10-16T03:12:07;2.55;;;1.50;;
50821;SDS011;36794;51.212;6.980;2022-10-16T03:14:34;2.75;;;1.60;;
50821;SDS011;36794;51.212;6.980;2022-10-16T03:17:00;7.88;;;2.13;;
50821;SDS011;36794;51.212;6.980;2022-10-16T03:19:26;8.82;;;1.95;;
50821;SDS011;36794;51.212;6.980;2022-10-16T03:21:52;8.95;;;2.25;;
50821;SDS011;36794;51.212;6.980;2022-10-16T03:24:18;4.20;;;2.00;;
50821;SDS011;36794;51.212;6.980;2022-10-16T03:26:44;7.35;;;2.22;;
50821;SDS011;36794;51.212;6.980;2022-10-16T03:29:10;5.90;;;2.10;;
50821;SDS011;36794;51.212;6.980;2022-10-16T03:31:35;12.52;;;3.03;;
50821;SDS011;36794;51.212;6.980;2022-10-16T03:34:01;4.75;;;2.10;;
50821;SDS011;36794;51.212;6.980;2022-10-16T03:36:27;6.38;;;1.85;;
50821;SDS011;36794;51.212;6.980;2022-10-16T03:38:53;7.63;;;1.98;;
50821;SDS011;36794;51.212;6.980;2022-10-16T03:41:19;5.18;;;2.40;;
50821;SDS011;36794;51.212;6.980;2022-10-16T03:43:45;8.35;;;1.90;;
50821;SDS011;36794;51.212;6.980;2022-10-16T03:46:11;5.13;;;1.70;;
50821;SDS011;36794;51.212;6.980;2022-10-16T03:48:37;12.07;;;1.80;;
50821;SDS011;36794;51.212;6.980;2022-10-16T03:51:04;4.43;;;1.30;;
50821;SDS011;36794;51.212;6.980;2022-10-16T03:53:30;8.45;;;1.70;;
50821;SDS011;36794;51.212;6.980;2022-10-16T03:55:56;7.57;;;1.60;;
50821;SDS011;36794;51.212;6.980;2022-10-16T03:58:23;10.02;;;1.75;;
50821;SDS011;36794;51.212;6.980;2022-10-16T04:00:49;12.70;;;1.60;;
50821;SDS011;36794;51.212;6.980;2022-10-16T04:03:15;8.57;;;1.40;;
50821;SDS011;36794;51.212;6.980;2022-10-16T04:05:42;4.85;;;1.50;;
50821;SDS011;36794;51.212;6.980;2022-10-16T04:08:08;8.93;;;1.20;;
50821;SDS011;36794;51.212;6.980;2022-10-16T04:10:34;4.15;;;1.02;;
50821;SDS011;36794;51.212;6.980;2022-10-16T04:13:00;7.60;;;2.20;;
50821;SDS011;36794;51.212;6.980;2022-10-16T04:15:25;11.60;;;1.30;;
50821;SDS011;36794;51.212;6.980;2022-10-16T04:17:52;13.05;;;1.30;;
50821;SDS011;36794;51.212;6.980;2022-10-16T04:20:18;4.45;;;1.30;;
50821;SDS011;36794;51.212;6.980;2022-10-16T04:22:44;6.28;;;1.30;;
50821;SDS011;36794;51.212;6.980;2022-10-16T04:25:10;5.50;;;1.25;;
50821;SDS011;36794;51.212;6.980;2022-10-16T04:27:36;4.60;;;0.98;;
50821;SDS011;36794;51.212;6.980;2022-10-16T04:30:02;6.03;;;1.13;;
50821;SDS011;36794;51.212;6.980;2022-10-16T04:32:28;6.70;;;1.40;;
50821;SDS011;36794;51.212;6.980;2022-10-16T04:34:54;7.40;;;1.40;;
50821;SDS011;36794;51.212;6.980;2022-10-16T04:37:26;10.82;;;1.52;;
50821;SDS011;36794;51.212;6.980;2022-10-16T04:39:53;5.35;;;1.23;;
50821;SDS011;36794;51.212;6.980;2022-10-16T04:42:19;5.03;;;1.25;;
50821;SDS011;36794;51.212;6.980;2022-10-16T04:44:45;8.95;;;1.40;;
50821;SDS011;36794;51.212;6.980;2022-10-16T04:47:12;7.77;;;1.40;;
50821;SDS011;36794;51.212;6.980;2022-10-16T04:49:38;6.18;;;1.13;;
50821;SDS011;36794;51.212;6.980;2022-10-16T04:52:04;6.28;;;1.67;;
50821;SDS011;36794;51.212;6.980;2022-10-16T04:54:30;4.18;;;1.40;;
50821;SDS011;36794;51.212;6.980;2022-10-16T04:56:56;5.57;;;1.15;;
50821;SDS011;36794;51.212;6.980;2022-10-16T04:59:22;14.75;;;1.42;;
50821;SDS011;36794;51.212;6.980;2022-10-16T05:01:49;8.95;;;1.27;;
50821;SDS011;36794;51.212;6.980;2022-10-16T05:04:15;16.42;;;1.80;;
50821;SDS011;36794;51.212;6.980;2022-10-16T05:06:41;6.25;;;1.75;;
50821;SDS011;36794;51.212;6.980;2022-10-16T05:09:07;7.90;;;1.40;;
50821;SDS011;36794;51.212;6.980;2022-10-16T05:11:34;11.43;;;1.60;;
50821;SDS011;36794;51.212;6.980;2022-10-16T05:14:00;9.93;;;1.52;;
50821;SDS011;36794;51.212;6.980;2022-10-16T05:16:26;15.43;;;1.70;;
50821;SDS011;36794;51.212;6.980;2022-10-16T05:18:52;11.97;;;2.27;;
50821;SDS011;36794;51.212;6.980;2022-10-16T05:21:18;11.57;;;1.40;;
50821;SDS011;36794;51.212;6.980;2022-10-16T05:23:44;5.97;;;1.70;;
50821;SDS011;36794;51.212;6.980;2022-10-16T05:26:10;10.23;;;1.60;;
50821;SDS011;36794;51.212;6.980;2022-10-16T05:28:36;13.03;;;1.90;;
50821;SDS011;36794;51.212;6.980;2022-10-16T05:31:05;10.20;;;1.73;;
50821;SDS011;36794;51.212;6.980;2022-10-16T05:33:31;10.77;;;1.80;;
50821;SDS011;36794;51.212;6.980;2022-10-16T05:36:00;9.60;;;1.57;;
50821;SDS011;36794;51.212;6.980;2022-10-16T05:38:27;10.77;;;2.08;;
50821;SDS011;36794;51.212;6.980;2022-10-16T05:40:53;7.88;;;3.10;;
50821;SDS011;36794;51.212;6.980;2022-10-16T05:43:19;12.38;;;6.18;;
50821;SDS011;36794;51.212;6.980;2022-10-16T05:46:02;13.27;;;6.28;;
50821;SDS011;36794;51.212;6.980;2022-10-16T05:48:29;16.08;;;4.05;;
50821;SDS011;36794;51.212;6.980;2022-10-16T05:53:24;10.02;;;2.60;;
50821;SDS011;36794;51.212;6.980;2022-10-16T05:55:56;11.40;;;2.40;;
50821;SDS011;36794;51.212;6.980;2022-10-16T05:58:23;10.17;;;2.90;;
50821;SDS011;36794;51.212;6.980;2022-10-16T06:01:09;10.10;;;2.00;;
50821;SDS011;36794;51.212;6.980;2022-10-16T06:03:35;4.60;;;2.00;;
50821;SDS011;36794;51.212;6.980;2022-10-16T06:06:15;5.93;;;2.00;;
50821;SDS011;36794;51.212;6.980;2022-10-16T06:08:41;6.03;;;1.70;;
50821;SDS011;36794;51.212;6.980;2022-10-16T06:11:08;9.77;;;1.85;;
50821;SDS011;36794;51.212;6.980;2022-10-16T06:13:34;6.00;;;1.83;;
50821;SDS011;36794;51.212;6.980;2022-10-16T06:16:00;4.03;;;1.73;;
50821;SDS011;36794;51.212;6.980;2022-10-16T06:18:27;8.32;;;1.63;;
50821;SDS011;36794;51.212;6.980;2022-10-16T06:20:53;3.53;;;1.77;;
50821;SDS011;36794;51.212;6.980;2022-10-16T06:23:19;2.97;;;1.70;;
50821;SDS011;36794;51.212;6.980;2022-10-16T06:25:45;4.35;;;1.52;;
50821;SDS011;36794;51.212;6.980;2022-10-16T06:28:13;3.22;;;1.50;;
50821;SDS011;36794;51.212;6.980;2022-10-16T06:30:39;5.57;;;1.85;;
50821;SDS011;36794;51.212;6.980;2022-10-16T06:33:05;4.43;;;1.60;;
50821;SDS011;36794;51.212;6.980;2022-10-16T06:35:30;7.10;;;1.60;;
50821;SDS011;36794;51.212;6.980;2022-10-16T06:37:57;6.10;;;1.60;;
50821;SDS011;36794;51.212;6.980;2022-10-16T06:40:23;5.70;;;1.73;;
50821;SDS011;36794;51.212;6.980;2022-10-16T06:42:49;5.70;;;2.13;;
50821;SDS011;36794;51.212;6.980;2022-10-16T06:45:16;2.83;;;1.45;;
50821;SDS011;36794;51.212;6.980;2022-10-16T06:47:42;3.17;;;1.48;;
50821;SDS011;36794;51.212;6.980;2022-10-16T06:50:08;5.95;;;1.75;;
50821;SDS011;36794;51.212;6.980;2022-10-16T06:52:34;2.55;;;1.27;;
50821;SDS011;36794;51.212;6.980;2022-10-16T06:55:00;4.78;;;1.42;;
50821;SDS011;36794;51.212;6.980;2022-10-16T06:57:27;9.05;;;1.27;;
50821;SDS011;36794;51.212;6.980;2022-10-16T06:59:53;4.25;;;1.40;;
50821;SDS011;36794;51.212;6.980;2022-10-16T07:02:19;5.85;;;1.08;;
50821;SDS011;36794;51.212;6.980;2022-10-16T07:04:45;5.38;;;1.20;;
50821;SDS011;36794;51.212;6.980;2022-10-16T07:07:17;5.40;;;1.10;;
50821;SDS011;36794;51.212;6.980;2022-10-16T07:09:43;7.93;;;1.17;;
50821;SDS011;36794;51.212;6.980;2022-10-16T07:12:22;2.00;;;0.85;;
50821;SDS011;36794;51.212;6.980;2022-10-16T07:14:48;9.70;;;1.42;;
50821;SDS011;36794;51.212;6.980;2022-10-16T07:17:17;2.00;;;1.10;;
50821;SDS011;36794;51.212;6.980;2022-10-16T07:19:43;6.65;;;1.40;;
50821;SDS011;36794;51.212;6.980;2022-10-16T07:22:08;8.68;;;1.63;;
50821;SDS011;36794;51.212;6.980;2022-10-16T07:24:34;1.90;;;0.95;;
50821;SDS011;36794;51.212;6.980;2022-10-16T07:27:00;6.97;;;1.30;;
50821;SDS011;36794;51.212;6.980;2022-10-16T07:29:26;4.18;;;1.23;;
50821;SDS011;36794;51.212;6.980;2022-10-16T07:31:53;5.28;;;1.38;;
50821;SDS011;36794;51.212;6.980;2022-10-16T07:34:19;4.05;;;1.50;;
50821;SDS011;36794;51.212;6.980;2022-10-16T07:36:50;5.78;;;1.52;;
50821;SDS011;36794;51.212;6.980;2022-10-16T07:39:16;3.85;;;1.25;;
50821;SDS011;36794;51.212;6.980;2022-10-16T07:41:43;6.25;;;1.40;;
50821;SDS011;36794;51.212;6.980;2022-10-16T07:44:08;4.95;;;1.40;;
50821;SDS011;36794;51.212;6.980;2022-10-16T07:46:35;5.18;;;1.08;;
50821;SDS011;36794;51.212;6.980;2022-10-16T07:49:01;8.52;;;1.10;;
50821;SDS011;36794;51.212;6.980;2022-10-16T07:51:27;6.47;;;1.55;;
50821;SDS011;36794;51.212;6.980;2022-10-16T07:53:53;4.57;;;1.33;;
50821;SDS011;36794;51.212;6.980;2022-10-16T07:56:19;2.92;;;1.20;;
50821;SDS011;36794;51.212;6.980;2022-10-16T07:58:45;4.15;;;1.20;;
50821;SDS011;36794;51.212;6.980;2022-10-16T08:01:12;2.55;;;1.02;;
50821;SDS011;36794;51.212;6.980;2022-10-16T08:03:40;3.90;;;1.83;;
50821;SDS011;36794;51.212;6.980;2022-10-16T08:06:07;2.92;;;1.05;;
50821;SDS011;36794;51.212;6.980;2022-10-16T08:08:32;1.92;;;0.90;;
50821;SDS011;36794;51.212;6.980;2022-10-16T08:10:59;5.55;;;1.02;;
50821;SDS011;36794;51.212;6.980;2022-10-16T08:13:25;5.72;;;0.80;;
50821;SDS011;36794;51.212;6.980;2022-10-16T08:15:51;7.97;;;1.58;;
50821;SDS011;36794;51.212;6.980;2022-10-16T08:18:17;3.92;;;0.70;;
50821;SDS011;36794;51.212;6.980;2022-10-16T08:20:43;3.33;;;1.05;;
50821;SDS011;36794;51.212;6.980;2022-10-16T08:23:12;4.55;;;0.80;;
50821;SDS011;36794;51.212;6.980;2022-10-16T08:25:38;2.35;;;0.75;;
50821;SDS011;36794;51.212;6.980;2022-10-16T08:28:08;2.75;;;0.80;;
50821;SDS011;36794;51.212;6.980;2022-10-16T08:30:35;7.60;;;0.90;;
50821;SDS011;36794;51.212;6.980;2022-10-16T08:33:01;3.03;;;0.90;;
50821;SDS011;36794;51.212;6.980;2022-10-16T08:35:27;2.25;;;0.70;;
50821;SDS011;36794;51.212;6.980;2022-10-16T08:37:53;3.42;;;1.00;;
50821;SDS011;36794;51.212;6.980;2022-10-16T08:40:20;4.53;;;1.10;;
50821;SDS011;36794;51.212;6.980;2022-10-16T08:45:34;7.32;;;1.05;;
50821;SDS011;36794;51.212;6.980;2022-10-16T08:50:30;4.22;;;0.70;;
50821;SDS011;36794;51.212;6.980;2022-10-16T08:52:57;5.60;;;0.68;;
50821;SDS011;36794;51.212;6.980;2022-10-16T08:55:29;6.93;;;0.68;;
50821;SDS011;36794;51.212;6.980;2022-10-16T08:57:57;4.95;;;0.93;;
50821;SDS011;36794;51.212;6.980;2022-10-16T09:00:23;5.75;;;0.90;;
50821;SDS011;36794;51.212;6.980;2022-10-16T09:07:55;3.72;;;0.55;;
50821;SDS011;36794;51.212;6.980;2022-10-16T09:10:27;9.55;;;0.80;;
50821;SDS011;36794;51.212;6.980;2022-10-16T09:13:02;1.80;;;0.80;;
50821;SDS011;36794;51.212;6.980;2022-10-16T09:20:46;5.65;;;0.90;;
50821;SDS011;36794;51.212;6.980;2022-10-16T09:23:19;4.70;;;0.98;;
50821;SDS011;36794;51.212;6.980;2022-10-16T09:25:47;3.42;;;0.68;;
50821;SDS011;36794;51.212;6.980;2022-10-16T09:28:13;4.05;;;0.70;;
50821;SDS011;36794;51.212;6.980;2022-10-16T09:30:42;2.72;;;0.73;;
50821;SDS011;36794;51.212;6.980;2022-10-16T09:33:09;2.90;;;0.93;;
50821;SDS011;36794;51.212;6.980;2022-10-16T09:38:01;3.35;;;0.77;;
50821;SDS011;36794;51.212;6.980;2022-10-16T09:40:30;3.15;;;0.70;;
50821;SDS011;36794;51.212;6.980;2022-10-16T09:43:21;3.15;;;0.77;;
50821;SDS011;36794;51.212;6.980;2022-10-16T09:45:42;6.43;;;0.70;;
50821;SDS011;36794;51.212;6.980;2022-10-16T09:48:10;3.85;;;0.82;;
50821;SDS011;36794;51.212;6.980;2022-10-16T09:50:36;3.35;;;0.85;;
50821;SDS011;36794;51.212;6.980;2022-10-16T09:53:04;4.07;;;0.90;;
50821;SDS011;36794;51.212;6.980;2022-10-16T10:02:00;2.38;;;0.60;;
50821;SDS011;36794;51.212;6.980;2022-10-16T10:04:36;5.82;;;0.65;;
50821;SDS011;36794;51.212;6.980;2022-10-16T10:07:03;3.58;;;0.75;;
50821;SDS011;36794;51.212;6.980;2022-10-16T10:09:31;6.43;;;0.70;;
50821;SDS011;36794;51.212;6.980;2022-10-16T10:12:02;6.75;;;0.75;;
50821;SDS011;36794;51.212;6.980;2022-10-16T10:17:11;4.20;;;0.50;;
50821;SDS011;36794;51.212;6.980;2022-10-16T10:19:38;3.45;;;0.88;;
50821;SDS011;36794;51.212;6.980;2022-10-16T10:24:55;4.80;;;0.75;;
50821;SDS011;36794;51.212;6.980;2022-10-16T10:27:22;6.95;;;0.70;;
50821;SDS011;36794;51.212;6.980;2022-10-16T10:30:10;3.75;;;0.55;;
50821;SDS011;36794;51.212;6.980;2022-10-16T10:45:26;3.60;;;0.52;;
50821;SDS011;36794;51.212;6.980;2022-10-16T10:50:26;2.70;;;0.40;;
50821;SDS011;36794;51.212;6.980;2022-10-16T10:56:02;4.15;;;0.50;;
50821;SDS011;36794;51.212;6.980;2022-10-16T11:01:01;2.55;;;0.50;;
50821;SDS011;36794;51.212;6.980;2022-10-16T11:03:36;6.55;;;0.95;;
50821;SDS011;36794;51.212;6.980;2022-10-16T11:06:08;3.85;;;0.88;;
50821;SDS011;36794;51.212;6.980;2022-10-16T11:08:40;7.40;;;0.77;;
50821;SDS011;36794;51.212;6.980;2022-10-16T11:11:10;8.50;;;0.50;;
50821;SDS011;36794;51.212;6.980;2022-10-16T11:13:43;7.22;;;0.75;;
50821;SDS011;36794;51.212;6.980;2022-10-16T11:16:21;1.88;;;0.40;;
50821;SDS011;36794;51.212;6.980;2022-10-16T11:21:20;3.33;;;0.50;;
50821;SDS011;36794;51.212;6.980;2022-10-16T11:23:55;2.78;;;0.65;;
50821;SDS011;36794;51.212;6.980;2022-10-16T11:26:27;2.00;;;0.40;;
50821;SDS011;36794;51.212;6.980;2022-10-16T11:28:54;2.38;;;0.50;;
50821;SDS011;36794;51.212;6.980;2022-10-16T11:34:04;4.03;;;0.85;;
50821;SDS011;36794;51.212;6.980;2022-10-16T11:36:39;1.88;;;0.43;;
50821;SDS011;36794;51.212;6.980;2022-10-16T11:41:35;3.60;;;0.65;;
50821;SDS011;36794;51.212;6.980;2022-10-16T11:46:29;2.65;;;0.30;;
50821;SDS011;36794;51.212;6.980;2022-10-16T11:49:00;5.07;;;0.50;;
50821;SDS011;36794;51.212;6.980;2022-10-16T11:51:39;4.35;;;0.70;;
50821;SDS011;36794;51.212;6.980;2022-10-16T11:54:24;8.90;;;0.40;;
50821;SDS011;36794;51.212;6.980;2022-10-16T11:56:57;2.85;;;0.50;;
50821;SDS011;36794;51.212;6.980;2022-10-16T11:59:42;3.78;;;0.40;;
50821;SDS011;36794;51.212;6.980;2022-10-16T12:08:06;8.40;;;0.70;;
50821;SDS011;36794;51.212;6.980;2022-10-16T12:10:50;4.75;;;0.50;;
50821;SDS011;36794;51.212;6.980;2022-10-16T12:18:33;7.65;;;2.13;;
50821;SDS011;36794;51.212;6.980;2022-10-16T12:20:59;11.38;;;1.00;;
50821;SDS011;36794;51.212;6.980;2022-10-16T12:24:19;2.13;;;0.40;;
50821;SDS011;36794;51.212;6.980;2022-10-16T12:26:30;4.47;;;0.60;;
50821;SDS011;36794;51.212;6.980;2022-10-16T12:29:43;7.25;;;0.70;;
50821;SDS011;36794;51.212;6.980;2022-10-16T12:31:45;3.60;;;0.32;;
50821;SDS011;36794;51.212;6.980;2022-10-16T12:37:07;4.60;;;0.43;;
50821;SDS011;36794;51.212;6.980;2022-10-16T12:39:33;1.55;;;0.28;;
50821;SDS011;36794;51.212;6.980;2022-10-16T12:42:03;2.75;;;0.40;;
50821;SDS011;36794;51.212;6.980;2022-10-16T12:44:33;4.38;;;0.50;;
50821;SDS011;36794;51.212;6.980;2022-10-16T12:46:59;5.50;;;0.60;;
50821;SDS011;36794;51.212;6.980;2022-10-16T12:51:54;1.85;;;0.40;;
50821;SDS011;36794;51.212;6.980;2022-10-16T12:54:27;3.05;;;0.32;;
50821;SDS011;36794;51.212;6.980;2022-10-16T12:56:58;5.75;;;0.55;;
50821;SDS011;36794;51.212;6.980;2022-10-16T13:04:47;3.00;;;0.57;;
50821;SDS011;36794;51.212;6.980;2022-10-16T13:07:19;6.43;;;0.55;;
50821;SDS011;36794;51.212;6.980;2022-10-16T13:28:10;5.82;;;0.60;;
50821;SDS011;36794;51.212;6.980;2022-10-16T13:30:38;5.80;;;0.70;;
50821;SDS011;36794;51.212;6.980;2022-10-16T13:35:46;3.75;;;0.60;;
50821;SDS011;36794;51.212;6.980;2022-10-16T13:38:17;2.20;;;0.50;;
50821;SDS011;36794;51.212;6.980;2022-10-16T13:40:51;3.30;;;0.50;;
50821;SDS011;36794;51.212;6.980;2022-10-16T13:43:18;5.93;;;0.52;;
50821;SDS011;36794;51.212;6.980;2022-10-16T13:48:30;1.02;;;0.38;;
50821;SDS011;36794;51.212;6.980;2022-10-16T13:51:00;4.28;;;0.50;;
50821;SDS011;36794;51.212;6.980;2022-10-16T13:53:26;1.77;;;0.50;;
50821;SDS011;36794;51.212;6.980;2022-10-16T13:55:52;5.30;;;0.50;;
50821;SDS011;36794;51.212;6.980;2022-10-16T13:58:18;6.57;;;1.10;;
50821;SDS011;36794;51.212;6.980;2022-10-16T14:01:45;5.60;;;0.60;;
50821;SDS011;36794;51.212;6.980;2022-10-16T14:03:40;3.25;;;0.40;;
50821;SDS011;36794;51.212;6.980;2022-10-16T14:06:10;1.92;;;0.40;;
50821;SDS011;36794;51.212;6.980;2022-10-16T14:08:37;6.70;;;0.50;;
50821;SDS011;36794;51.212;6.980;2022-10-16T14:11:06;6.05;;;0.60;;
50821;SDS011;36794;51.212;6.980;2022-10-16T14:13:39;5.78;;;0.68;;
50821;SDS011;36794;51.212;6.980;2022-10-16T14:16:16;2.00;;;0.68;;
50821;SDS011;36794;51.212;6.980;2022-10-16T14:18:44;4.88;;;0.40;;
50821;SDS011;36794;51.212;6.980;2022-10-16T14:21:12;3.45;;;0.40;;
50821;SDS011;36794;51.212;6.980;2022-10-16T14:23:39;3.30;;;0.50;;
50821;SDS011;36794;51.212;6.980;2022-10-16T14:28:34;3.00;;;0.47;;
50821;SDS011;36794;51.212;6.980;2022-10-16T14:31:01;2.88;;;0.40;;
50821;SDS011;36794;51.212;6.980;2022-10-16T14:38:26;1.48;;;0.40;;
50821;SDS011;36794;51.212;6.980;2022-10-16T14:40:53;2.67;;;0.40;;
50821;SDS011;36794;51.212;6.980;2022-10-16T14:43:31;2.38;;;0.40;;
50821;SDS011;36794;51.212;6.980;2022-10-16T14:45:57;7.95;;;0.60;;
50821;SDS011;36794;51.212;6.980;2022-10-16T14:48:24;1.73;;;0.30;;
50821;SDS011;36794;51.212;6.980;2022-10-16T14:50:50;1.10;;;0.20;;
50821;SDS011;36794;51.212;6.980;2022-10-16T14:53:16;2.45;;;0.40;;
50821;SDS011;36794;51.212;6.980;2022-10-16T14:55:42;1.80;;;0.55;;
50821;SDS011;36794;51.212;6.980;2022-10-16T14:58:26;1.58;;;0.30;;
50821;SDS011;36794;51.212;6.980;2022-10-16T15:00:52;8.38;;;0.50;;
50821;SDS011;36794;51.212;6.980;2022-10-16T15:03:18;2.90;;;0.38;;
50821;SDS011;36794;51.212;6.980;2022-10-16T15:05:44;4.00;;;0.52;;
50821;SDS011;36794;51.212;6.980;2022-10-16T15:08:10;8.20;;;0.82;;
50821;SDS011;36794;51.212;6.980;2022-10-16T15:10:38;5.05;;;0.40;;
50821;SDS011;36794;51.212;6.980;2022-10-16T15:13:05;6.88;;;0.43;;
50821;SDS011;36794;51.212;6.980;2022-10-16T15:15:35;4.03;;;0.52;;
50821;SDS011;36794;51.212;6.980;2022-10-16T15:18:02;4.05;;;0.50;;
50821;SDS011;36794;51.212;6.980;2022-10-16T15:20:30;2.40;;;0.40;;
50821;SDS011;36794;51.212;6.980;2022-10-16T15:22:58;3.08;;;0.40;;
50821;SDS011;36794;51.212;6.980;2022-10-16T15:28:04;1.25;;;0.40;;
50821;SDS011;36794;51.212;6.980;2022-10-16T15:30:30;6.50;;;1.10;;
50821;SDS011;36794;51.212;6.980;2022-10-16T15:32:56;1.15;;;0.60;;
50821;SDS011;36794;51.212;6.980;2022-10-16T15:35:22;1.70;;;0.40;;
50821;SDS011;36794;51.212;6.980;2022-10-16T15:37:48;3.25;;;0.43;;
50821;SDS011;36794;51.212;6.980;2022-10-16T15:40:15;5.25;;;0.60;;
50821;SDS011;36794;51.212;6.980;2022-10-16T15:42:41;6.25;;;0.50;;
50821;SDS011;36794;51.212;6.980;2022-10-16T15:45:08;4.22;;;0.50;;
50821;SDS011;36794;51.212;6.980;2022-10-16T15:50:04;10.35;;;0.40;;
50821;SDS011;36794;51.212;6.980;2022-10-16T15:52:30;2.67;;;0.50;;
50821;SDS011;36794;51.212;6.980;2022-10-16T15:54:57;4.28;;;0.93;;
50821;SDS011;36794;51.212;6.980;2022-10-16T15:57:23;3.45;;;0.70;;
50821;SDS011;36794;51.212;6.980;2022-10-16T15:59:49;1.45;;;0.47;;
50821;SDS011;36794;51.212;6.980;2022-10-16T16:02:15;1.48;;;0.45;;
50821;SDS011;36794;51.212;6.980;2022-10-16T16:04:41;5.50;;;0.50;;
50821;SDS011;36794;51.212;6.980;2022-10-16T16:07:07;1.35;;;0.50;;
50821;SDS011;36794;51.212;6.980;2022-10-16T16:09:33;2.80;;;0.50;;
50821;SDS011;36794;51.212;6.980;2022-10-16T16:11:59;3.22;;;0.80;;
50821;SDS011;36794;51.212;6.980;2022-10-16T16:14:26;3.30;;;0.60;;
50821;SDS011;36794;51.212;6.980;2022-10-16T16:16:53;1.42;;;0.63;;
50821;SDS011;36794;51.212;6.980;2022-10-16T16:19:19;2.17;;;0.70;;
50821;SDS011;36794;51.212;6.980;2022-10-16T16:21:46;1.80;;;0.60;;
50821;SDS011;36794;51.212;6.980;2022-10-16T16:24:12;3.90;;;0.73;;
50821;SDS011;36794;51.212;6.980;2022-10-16T16:26:38;4.28;;;0.60;;
50821;SDS011;36794;51.212;6.980;2022-10-16T16:29:08;2.45;;;0.63;;
50821;SDS011;36794;51.212;6.980;2022-10-16T16:31:34;4.10;;;0.90;;
50821;SDS011;36794;51.212;6.980;2022-10-16T16:34:00;6.22;;;1.00;;
50821;SDS011;36794;51.212;6.980;2022-10-16T16:36:30;3.90;;;0.60;;
50821;SDS011;36794;51.212;6.980;2022-10-16T16:38:57;6.60;;;0.70;;
50821;SDS011;36794;51.212;6.980;2022-10-16T16:41:25;1.35;;;0.50;;
50821;SDS011;36794;51.212;6.980;2022-10-16T16:43:52;8.30;;;0.90;;
50821;SDS011;36794;51.212;6.980;2022-10-16T16:46:18;1.30;;;0.45;;
50821;SDS011;36794;51.212;6.980;2022-10-16T16:48:45;3.63;;;0.63;;
50821;SDS011;36794;51.212;6.980;2022-10-16T16:51:15;2.60;;;0.50;;
50821;SDS011;36794;51.212;6.980;2022-10-16T16:53:43;5.43;;;0.68;;
50821;SDS011;36794;51.212;6.980;2022-10-16T16:56:09;8.77;;;1.20;;
50821;SDS011;36794;51.212;6.980;2022-10-16T16:58:35;3.33;;;0.70;;
50821;SDS011;36794;51.212;6.980;2022-10-16T17:01:01;5.75;;;1.20;;
50821;SDS011;36794;51.212;6.980;2022-10-16T17:03:28;2.80;;;0.70;;